This is the latest recevied weather packets stored in our database for station/object WA4OPQ-3. If no packets are shown the sender has not sent any weather packets the latest 1 day(s).
| Time | Temp. | Humidity | Pressure | Rain* | Wind** | Luminosity | Snow |
|---|---|---|---|---|---|---|---|
| 1777992952 | 18.33° C | 80% | 1011.9 hPa | 0 mm | 0 m/s | 172 W/m² | - |
| 1777992351 | 17.78° C | 81% | 1011.8 hPa | 0 mm | 0.89 m/s, 198° | 176 W/m² | - |
| 1777991743 | 17.22° C | 80% | 1011.6 hPa | 0 mm | 0.45 m/s, 185° | 176 W/m² | - |
| 1777991136 | 17.22° C | 83% | 1011.5 hPa | 0 mm | 0 m/s | 139 W/m² | - |
| 1777990532 | 17.22° C | 80% | 1011.6 hPa | 0 mm | 1.34 m/s, 246° | 123 W/m² | - |
| 1777989927 | 17.22° C | 80% | 1011.3 hPa | 0 mm | 0.45 m/s, 214° | 150 W/m² | - |
| 1777989321 | 17.22° C | 83% | 1011.3 hPa | 0 mm | 0 m/s | 174 W/m² | - |
| 1777988716 | 16.67° C | 82% | 1011.4 hPa | 0 mm | 0.45 m/s, 208° | 152 W/m² | - |
| 1777988111 | 16.67° C | 83% | 1011.5 hPa | 0 mm | 0 m/s | 131 W/m² | - |
| 1777987506 | 16.11° C | 81% | 1011.4 hPa | 0 mm | 0 m/s | 122 W/m² | - |
| 1777986901 | 16.11° C | 82% | 1011.2 hPa | 0 mm | 0 m/s | 128 W/m² | - |
| 1777986297 | 16.11° C | 84% | 1011 hPa | 0 mm | 0 m/s | 123 W/m² | - |
| 1777985692 | 15.56° C | 82% | 1011.1 hPa | 0 mm | 0 m/s | 119 W/m² | - |
| 1777985086 | 15° C | 87% | 1011 hPa | 0 mm | 0.45 m/s, 172° | 90 W/m² | - |
| 1777984480 | 14.44° C | 87% | 1010.6 hPa | 0 mm | 0 m/s | 87 W/m² | - |
| 1777983875 | 13.89° C | 92% | 1010.4 hPa | 0 mm | 0 m/s | 68 W/m² | - |
| 1777983270 | 13.33° C | 92% | 1010.6 hPa | 0 mm | 0 m/s | 56 W/m² | - |
| 1777982665 | 13.33° C | 93% | 1010.9 hPa | 0 mm | 0 m/s | 52 W/m² | - |
| 1777982061 | 12.78° C | 94% | 1010.8 hPa | 0 mm | 0 m/s | 43 W/m² | - |
| 1777981456 | 12.22° C | 94% | 1010.7 hPa | 0 mm | 0 m/s | 38 W/m² | - |
| 1777980850 | 12.22° C | 95% | 1010.3 hPa | 0 mm | 0 m/s | 28 W/m² | - |
| 1777980245 | 12.22° C | 96% | 1010.5 hPa | 0 mm | 0 m/s | 16 W/m² | - |
| 1777979643 | 11.67° C | 96% | 1010.3 hPa | 0 mm | 0 m/s | 9 W/m² | - |
| 1777979035 | 11.67° C | 96% | 1010.2 hPa | 0 mm | 0 m/s | 3 W/m² | - |
| 1777978432 | 11.67° C | 96% | 1009.8 hPa | 0 mm | 0 m/s | 0 W/m² | - |
* Rain latest hour (hover to see other rain measurements)
** Current wind speed in m/s (hover to see current wind gust speed)